sensor_id;sensor_type;location;lat;lon;timestamp;P1;durP1;ratioP1;P2;durP2;ratioP2
35522;SDS011;61478;50.820;4.330;2022-12-07T00:01:45;23.20;;;18.70;;
35522;SDS011;61478;50.820;4.330;2022-12-07T00:04:16;24.50;;;19.23;;
35522;SDS011;61478;50.820;4.330;2022-12-07T00:06:46;23.23;;;18.25;;
35522;SDS011;61478;50.820;4.330;2022-12-07T00:09:19;23.23;;;18.63;;
35522;SDS011;61478;50.820;4.330;2022-12-07T00:11:52;25.20;;;18.42;;
35522;SDS011;61478;50.820;4.330;2022-12-07T00:14:27;25.73;;;19.30;;
35522;SDS011;61478;50.820;4.330;2022-12-07T00:16:53;23.63;;;19.90;;
35522;SDS011;61478;50.820;4.330;2022-12-07T00:19:19;25.95;;;19.77;;
35522;SDS011;61478;50.820;4.330;2022-12-07T00:21:44;23.70;;;19.17;;
35522;SDS011;61478;50.820;4.330;2022-12-07T00:24:10;23.42;;;18.77;;
35522;SDS011;61478;50.820;4.330;2022-12-07T00:26:39;25.33;;;18.13;;
35522;SDS011;61478;50.820;4.330;2022-12-07T00:29:07;22.27;;;19.83;;
35522;SDS011;61478;50.820;4.330;2022-12-07T00:31:42;27.58;;;19.30;;
35522;SDS011;61478;50.820;4.330;2022-12-07T00:34:11;24.25;;;18.75;;
35522;SDS011;61478;50.820;4.330;2022-12-07T00:36:46;24.05;;;19.73;;
35522;SDS011;61478;50.820;4.330;2022-12-07T00:39:16;26.13;;;19.33;;
35522;SDS011;61478;50.820;4.330;2022-12-07T00:41:42;30.20;;;20.02;;
35522;SDS011;61478;50.820;4.330;2022-12-07T00:44:08;21.63;;;18.52;;
35522;SDS011;61478;50.820;4.330;2022-12-07T00:46:34;26.88;;;19.42;;
35522;SDS011;61478;50.820;4.330;2022-12-07T00:49:00;25.50;;;20.05;;
35522;SDS011;61478;50.820;4.330;2022-12-07T00:51:26;29.02;;;20.55;;
35522;SDS011;61478;50.820;4.330;2022-12-07T00:53:52;25.42;;;19.88;;
35522;SDS011;61478;50.820;4.330;2022-12-07T00:56:22;22.13;;;19.60;;
35522;SDS011;61478;50.820;4.330;2022-12-07T00:58:53;27.73;;;20.45;;
35522;SDS011;61478;50.820;4.330;2022-12-07T01:01:25;20.83;;;18.30;;
35522;SDS011;61478;50.820;4.330;2022-12-07T01:03:53;23.35;;;18.55;;
35522;SDS011;61478;50.820;4.330;2022-12-07T01:06:20;23.65;;;18.70;;
35522;SDS011;61478;50.820;4.330;2022-12-07T01:08:50;22.38;;;18.92;;
35522;SDS011;61478;50.820;4.330;2022-12-07T01:11:18;26.90;;;19.85;;
35522;SDS011;61478;50.820;4.330;2022-12-07T01:13:46;26.40;;;19.73;;
35522;SDS011;61478;50.820;4.330;2022-12-07T01:16:13;27.30;;;18.17;;
35522;SDS011;61478;50.820;4.330;2022-12-07T01:18:40;26.13;;;19.40;;
35522;SDS011;61478;50.820;4.330;2022-12-07T01:21:08;27.63;;;19.70;;
35522;SDS011;61478;50.820;4.330;2022-12-07T01:23:36;21.77;;;18.48;;
35522;SDS011;61478;50.820;4.330;2022-12-07T01:26:04;23.10;;;17.83;;
35522;SDS011;61478;50.820;4.330;2022-12-07T01:28:32;19.23;;;17.13;;
35522;SDS011;61478;50.820;4.330;2022-12-07T01:31:05;20.33;;;18.23;;
35522;SDS011;61478;50.820;4.330;2022-12-07T01:33:46;25.70;;;19.52;;
35522;SDS011;61478;50.820;4.330;2022-12-07T01:36:20;26.45;;;19.92;;
35522;SDS011;61478;50.820;4.330;2022-12-07T01:38:53;22.52;;;19.20;;
35522;SDS011;61478;50.820;4.330;2022-12-07T01:41:24;27.98;;;20.30;;
35522;SDS011;61478;50.820;4.330;2022-12-07T01:46:50;22.65;;;19.65;;
35522;SDS011;61478;50.820;4.330;2022-12-07T01:52:01;23.50;;;19.08;;
35522;SDS011;61478;50.820;4.330;2022-12-07T01:54:38;22.48;;;19.20;;
35522;SDS011;61478;50.820;4.330;2022-12-07T01:57:04;25.08;;;19.35;;
35522;SDS011;61478;50.820;4.330;2022-12-07T01:59:33;26.30;;;19.42;;
35522;SDS011;61478;50.820;4.330;2022-12-07T02:02:04;26.95;;;18.98;;
35522;SDS011;61478;50.820;4.330;2022-12-07T02:04:40;20.52;;;18.27;;
35522;SDS011;61478;50.820;4.330;2022-12-07T02:07:09;26.63;;;19.45;;
35522;SDS011;61478;50.820;4.330;2022-12-07T02:09:39;21.92;;;19.50;;
35522;SDS011;61478;50.820;4.330;2022-12-07T02:12:10;24.58;;;19.80;;
35522;SDS011;61478;50.820;4.330;2022-12-07T02:14:39;23.08;;;19.08;;
35522;SDS011;61478;50.820;4.330;2022-12-07T02:17:17;25.80;;;18.63;;
35522;SDS011;61478;50.820;4.330;2022-12-07T02:30:48;28.80;;;19.02;;
35522;SDS011;61478;50.820;4.330;2022-12-07T02:33:31;22.17;;;17.67;;
35522;SDS011;61478;50.820;4.330;2022-12-07T02:36:08;22.23;;;17.77;;
35522;SDS011;61478;50.820;4.330;2022-12-07T02:38:54;20.30;;;17.58;;
35522;SDS011;61478;50.820;4.330;2022-12-07T02:41:29;26.08;;;19.27;;
35522;SDS011;61478;50.820;4.330;2022-12-07T02:44:02;26.15;;;18.38;;
35522;SDS011;61478;50.820;4.330;2022-12-07T02:46:33;29.02;;;19.88;;
35522;SDS011;61478;50.820;4.330;2022-12-07T02:49:05;20.50;;;17.85;;
35522;SDS011;61478;50.820;4.330;2022-12-07T02:51:33;20.65;;;18.30;;
35522;SDS011;61478;50.820;4.330;2022-12-07T02:54:07;19.73;;;17.70;;
35522;SDS011;61478;50.820;4.330;2022-12-07T03:02:07;23.33;;;17.20;;
35522;SDS011;61478;50.820;4.330;2022-12-07T03:10:22;22.55;;;18.42;;
35522;SDS011;61478;50.820;4.330;2022-12-07T03:18:16;20.73;;;16.20;;
35522;SDS011;61478;50.820;4.330;2022-12-07T03:20:45;18.20;;;16.10;;
35522;SDS011;61478;50.820;4.330;2022-12-07T03:23:15;20.80;;;16.52;;
35522;SDS011;61478;50.820;4.330;2022-12-07T03:25:45;19.67;;;17.27;;
35522;SDS011;61478;50.820;4.330;2022-12-07T03:28:14;22.77;;;16.83;;
35522;SDS011;61478;50.820;4.330;2022-12-07T03:33:39;22.05;;;15.68;;
35522;SDS011;61478;50.820;4.330;2022-12-07T03:36:13;22.45;;;16.05;;
35522;SDS011;61478;50.820;4.330;2022-12-07T03:38:46;20.55;;;16.05;;
35522;SDS011;61478;50.820;4.330;2022-12-07T03:41:24;20.70;;;15.13;;
35522;SDS011;61478;50.820;4.330;2022-12-07T03:43:53;17.92;;;15.80;;
35522;SDS011;61478;50.820;4.330;2022-12-07T03:49:18;18.33;;;14.50;;
35522;SDS011;61478;50.820;4.330;2022-12-07T03:51:58;23.77;;;16.88;;
35522;SDS011;61478;50.820;4.330;2022-12-07T03:54:34;19.70;;;16.88;;
35522;SDS011;61478;50.820;4.330;2022-12-07T03:57:07;23.58;;;17.20;;
35522;SDS011;61478;50.820;4.330;2022-12-07T03:59:37;22.25;;;15.73;;
35522;SDS011;61478;50.820;4.330;2022-12-07T04:02:07;21.83;;;17.15;;
35522;SDS011;61478;50.820;4.330;2022-12-07T04:04:39;19.25;;;15.25;;
35522;SDS011;61478;50.820;4.330;2022-12-07T04:07:09;21.88;;;15.52;;
35522;SDS011;61478;50.820;4.330;2022-12-07T04:09:39;18.40;;;15.55;;
35522;SDS011;61478;50.820;4.330;2022-12-07T04:12:05;19.23;;;15.05;;
35522;SDS011;61478;50.820;4.330;2022-12-07T04:14:31;21.33;;;15.85;;
35522;SDS011;61478;50.820;4.330;2022-12-07T04:16:57;21.95;;;16.10;;
35522;SDS011;61478;50.820;4.330;2022-12-07T04:19:25;19.45;;;16.02;;
35522;SDS011;61478;50.820;4.330;2022-12-07T04:21:52;25.38;;;16.70;;
35522;SDS011;61478;50.820;4.330;2022-12-07T04:24:19;23.08;;;17.25;;
35522;SDS011;61478;50.820;4.330;2022-12-07T04:26:45;24.83;;;17.63;;
35522;SDS011;61478;50.820;4.330;2022-12-07T04:29:12;20.73;;;17.17;;
35522;SDS011;61478;50.820;4.330;2022-12-07T04:31:39;22.98;;;18.65;;
35522;SDS011;61478;50.820;4.330;2022-12-07T04:34:09;24.90;;;19.23;;
35522;SDS011;61478;50.820;4.330;2022-12-07T04:36:37;23.88;;;18.70;;
35522;SDS011;61478;50.820;4.330;2022-12-07T04:39:07;21.83;;;17.90;;
35522;SDS011;61478;50.820;4.330;2022-12-07T04:41:38;24.92;;;18.80;;
35522;SDS011;61478;50.820;4.330;2022-12-07T04:44:04;22.52;;;18.23;;
35522;SDS011;61478;50.820;4.330;2022-12-07T04:46:35;30.10;;;18.30;;
35522;SDS011;61478;50.820;4.330;2022-12-07T04:49:10;21.65;;;17.70;;
35522;SDS011;61478;50.820;4.330;2022-12-07T04:51:38;21.50;;;17.55;;
35522;SDS011;61478;50.820;4.330;2022-12-07T04:54:11;24.20;;;17.25;;
35522;SDS011;61478;50.820;4.330;2022-12-07T04:56:44;22.63;;;17.25;;
35522;SDS011;61478;50.820;4.330;2022-12-07T04:59:16;25.23;;;17.75;;
35522;SDS011;61478;50.820;4.330;2022-12-07T05:01:45;22.27;;;16.63;;
35522;SDS011;61478;50.820;4.330;2022-12-07T05:04:11;24.67;;;17.80;;
35522;SDS011;61478;50.820;4.330;2022-12-07T05:06:38;28.40;;;17.98;;
35522;SDS011;61478;50.820;4.330;2022-12-07T05:09:05;17.83;;;15.60;;
35522;SDS011;61478;50.820;4.330;2022-12-07T05:11:31;23.05;;;16.52;;
35522;SDS011;61478;50.820;4.330;2022-12-07T05:14:10;24.45;;;16.88;;
35522;SDS011;61478;50.820;4.330;2022-12-07T05:16:42;23.10;;;16.73;;
35522;SDS011;61478;50.820;4.330;2022-12-07T05:19:12;25.50;;;17.77;;
35522;SDS011;61478;50.820;4.330;2022-12-07T05:21:38;22.27;;;16.42;;
35522;SDS011;61478;50.820;4.330;2022-12-07T05:24:08;21.17;;;16.00;;
35522;SDS011;61478;50.820;4.330;2022-12-07T05:26:36;21.80;;;15.88;;
35522;SDS011;61478;50.820;4.330;2022-12-07T05:29:03;17.88;;;15.35;;
35522;SDS011;61478;50.820;4.330;2022-12-07T05:31:32;19.13;;;16.90;;
35522;SDS011;61478;50.820;4.330;2022-12-07T05:33:59;21.70;;;17.05;;
35522;SDS011;61478;50.820;4.330;2022-12-07T05:36:25;26.67;;;15.50;;
35522;SDS011;61478;50.820;4.330;2022-12-07T05:39:00;22.38;;;16.77;;
35522;SDS011;61478;50.820;4.330;2022-12-07T05:41:31;25.15;;;17.13;;
35522;SDS011;61478;50.820;4.330;2022-12-07T05:44:16;20.33;;;16.42;;
35522;SDS011;61478;50.820;4.330;2022-12-07T05:46:42;24.38;;;16.95;;
35522;SDS011;61478;50.820;4.330;2022-12-07T05:49:08;25.90;;;18.13;;
35522;SDS011;61478;50.820;4.330;2022-12-07T05:51:37;19.58;;;15.95;;
35522;SDS011;61478;50.820;4.330;2022-12-07T05:54:11;20.77;;;16.33;;
35522;SDS011;61478;50.820;4.330;2022-12-07T05:56:37;24.00;;;17.25;;
35522;SDS011;61478;50.820;4.330;2022-12-07T05:59:03;22.23;;;17.10;;
35522;SDS011;61478;50.820;4.330;2022-12-07T06:01:48;25.38;;;17.75;;
35522;SDS011;61478;50.820;4.330;2022-12-07T06:04:18;26.00;;;19.60;;
35522;SDS011;61478;50.820;4.330;2022-12-07T06:06:44;22.65;;;16.50;;
35522;SDS011;61478;50.820;4.330;2022-12-07T06:09:10;22.85;;;15.77;;
35522;SDS011;61478;50.820;4.330;2022-12-07T06:11:37;23.92;;;15.85;;
35522;SDS011;61478;50.820;4.330;2022-12-07T06:14:22;29.15;;;16.17;;
35522;SDS011;61478;50.820;4.330;2022-12-07T06:16:48;25.73;;;16.05;;
35522;SDS011;61478;50.820;4.330;2022-12-07T06:19:14;21.90;;;16.52;;
35522;SDS011;61478;50.820;4.330;2022-12-07T06:21:40;20.83;;;15.88;;
35522;SDS011;61478;50.820;4.330;2022-12-07T06:24:08;21.98;;;15.63;;
35522;SDS011;61478;50.820;4.330;2022-12-07T06:26:36;27.30;;;17.00;;
35522;SDS011;61478;50.820;4.330;2022-12-07T06:29:03;28.90;;;16.58;;
35522;SDS011;61478;50.820;4.330;2022-12-07T06:31:29;22.67;;;16.15;;
35522;SDS011;61478;50.820;4.330;2022-12-07T06:34:01;28.95;;;17.08;;
35522;SDS011;61478;50.820;4.330;2022-12-07T06:36:29;21.27;;;16.25;;
35522;SDS011;61478;50.820;4.330;2022-12-07T06:38:59;21.27;;;16.13;;
35522;SDS011;61478;50.820;4.330;2022-12-07T06:41:30;22.67;;;16.00;;
35522;SDS011;61478;50.820;4.330;2022-12-07T06:43:58;27.90;;;16.20;;
35522;SDS011;61478;50.820;4.330;2022-12-07T06:48:52;18.50;;;14.40;;
35522;SDS011;61478;50.820;4.330;2022-12-07T06:51:19;24.98;;;16.52;;
35522;SDS011;61478;50.820;4.330;2022-12-07T06:53:47;18.73;;;16.42;;
35522;SDS011;61478;50.820;4.330;2022-12-07T06:56:13;22.02;;;15.25;;
35522;SDS011;61478;50.820;4.330;2022-12-07T06:58:40;22.58;;;15.68;;
35522;SDS011;61478;50.820;4.330;2022-12-07T07:01:13;28.80;;;19.80;;
35522;SDS011;61478;50.820;4.330;2022-12-07T07:03:42;25.60;;;15.70;;
35522;SDS011;61478;50.820;4.330;2022-12-07T07:06:08;17.15;;;13.77;;
35522;SDS011;61478;50.820;4.330;2022-12-07T07:08:35;22.38;;;15.25;;
35522;SDS011;61478;50.820;4.330;2022-12-07T07:11:01;21.75;;;15.02;;
35522;SDS011;61478;50.820;4.330;2022-12-07T07:13:31;25.73;;;14.35;;
35522;SDS011;61478;50.820;4.330;2022-12-07T07:15:58;25.48;;;14.30;;
35522;SDS011;61478;50.820;4.330;2022-12-07T07:18:25;19.90;;;15.75;;
35522;SDS011;61478;50.820;4.330;2022-12-07T07:20:51;21.65;;;15.38;;
35522;SDS011;61478;50.820;4.330;2022-12-07T07:23:20;23.63;;;14.73;;
35522;SDS011;61478;50.820;4.330;2022-12-07T07:25:47;19.45;;;15.57;;
35522;SDS011;61478;50.820;4.330;2022-12-07T07:28:13;18.90;;;15.00;;
35522;SDS011;61478;50.820;4.330;2022-12-07T07:30:40;23.58;;;13.82;;
35522;SDS011;61478;50.820;4.330;2022-12-07T07:33:07;21.38;;;14.55;;
35522;SDS011;61478;50.820;4.330;2022-12-07T07:35:40;28.17;;;14.55;;
35522;SDS011;61478;50.820;4.330;2022-12-07T07:38:06;44.33;;;17.15;;
35522;SDS011;61478;50.820;4.330;2022-12-07T07:40:33;23.67;;;17.15;;
35522;SDS011;61478;50.820;4.330;2022-12-07T07:42:59;29.25;;;18.42;;
35522;SDS011;61478;50.820;4.330;2022-12-07T07:45:26;40.75;;;28.85;;
35522;SDS011;61478;50.820;4.330;2022-12-07T07:47:52;24.17;;;17.23;;
35522;SDS011;61478;50.820;4.330;2022-12-07T07:50:19;28.30;;;17.33;;
35522;SDS011;61478;50.820;4.330;2022-12-07T07:52:45;23.80;;;16.20;;
35522;SDS011;61478;50.820;4.330;2022-12-07T07:55:12;21.48;;;14.25;;
35522;SDS011;61478;50.820;4.330;2022-12-07T07:57:38;25.98;;;15.55;;
35522;SDS011;61478;50.820;4.330;2022-12-07T08:00:09;24.48;;;16.38;;
35522;SDS011;61478;50.820;4.330;2022-12-07T08:02:37;24.88;;;15.77;;
35522;SDS011;61478;50.820;4.330;2022-12-07T08:05:03;19.95;;;15.40;;
35522;SDS011;61478;50.820;4.330;2022-12-07T08:07:35;18.42;;;14.32;;
35522;SDS011;61478;50.820;4.330;2022-12-07T08:10:01;25.67;;;15.38;;
35522;SDS011;61478;50.820;4.330;2022-12-07T08:12:28;22.92;;;14.73;;
35522;SDS011;61478;50.820;4.330;2022-12-07T08:14:54;21.65;;;14.77;;
35522;SDS011;61478;50.820;4.330;2022-12-07T08:17:19;23.17;;;17.45;;
35522;SDS011;61478;50.820;4.330;2022-12-07T08:19:45;20.58;;;13.73;;
35522;SDS011;61478;50.820;4.330;2022-12-07T08:22:11;20.75;;;14.57;;
35522;SDS011;61478;50.820;4.330;2022-12-07T08:24:37;22.45;;;15.25;;
35522;SDS011;61478;50.820;4.330;2022-12-07T08:27:02;26.58;;;15.75;;
35522;SDS011;61478;50.820;4.330;2022-12-07T08:29:29;25.02;;;16.13;;
35522;SDS011;61478;50.820;4.330;2022-12-07T08:31:56;24.80;;;16.52;;
35522;SDS011;61478;50.820;4.330;2022-12-07T08:34:22;28.55;;;16.08;;
35522;SDS011;61478;50.820;4.330;2022-12-07T08:36:48;22.48;;;16.63;;
35522;SDS011;61478;50.820;4.330;2022-12-07T08:39:13;23.33;;;16.85;;
35522;SDS011;61478;50.820;4.330;2022-12-07T08:41:39;21.52;;;15.93;;
35522;SDS011;61478;50.820;4.330;2022-12-07T08:44:05;20.35;;;15.23;;
35522;SDS011;61478;50.820;4.330;2022-12-07T08:46:38;23.08;;;15.60;;
35522;SDS011;61478;50.820;4.330;2022-12-07T08:49:40;25.13;;;16.23;;
35522;SDS011;61478;50.820;4.330;2022-12-07T08:52:09;24.60;;;16.00;;
35522;SDS011;61478;50.820;4.330;2022-12-07T08:54:35;29.60;;;17.00;;
35522;SDS011;61478;50.820;4.330;2022-12-07T08:57:03;21.83;;;15.52;;
35522;SDS011;61478;50.820;4.330;2022-12-07T08:59:30;27.33;;;14.75;;
35522;SDS011;61478;50.820;4.330;2022-12-07T09:01:57;23.75;;;15.35;;
35522;SDS011;61478;50.820;4.330;2022-12-07T09:04:23;27.70;;;14.60;;
35522;SDS011;61478;50.820;4.330;2022-12-07T09:06:49;20.55;;;15.35;;
35522;SDS011;61478;50.820;4.330;2022-12-07T09:09:15;25.05;;;15.65;;
35522;SDS011;61478;50.820;4.330;2022-12-07T09:11:41;27.08;;;16.13;;
35522;SDS011;61478;50.820;4.330;2022-12-07T09:14:07;39.08;;;28.88;;
35522;SDS011;61478;50.820;4.330;2022-12-07T09:16:33;27.23;;;18.73;;
35522;SDS011;61478;50.820;4.330;2022-12-07T09:18:59;27.88;;;17.27;;
35522;SDS011;61478;50.820;4.330;2022-12-07T09:21:25;15.63;;;13.10;;
35522;SDS011;61478;50.820;4.330;2022-12-07T09:23:51;26.02;;;13.35;;
35522;SDS011;61478;50.820;4.330;2022-12-07T09:26:16;20.20;;;14.05;;
35522;SDS011;61478;50.820;4.330;2022-12-07T09:28:42;28.10;;;14.55;;
35522;SDS011;61478;50.820;4.330;2022-12-07T09:31:08;18.80;;;13.60;;
35522;SDS011;61478;50.820;4.330;2022-12-07T09:33:34;19.27;;;12.93;;
35522;SDS011;61478;50.820;4.330;2022-12-07T09:36:00;19.70;;;11.75;;
35522;SDS011;61478;50.820;4.330;2022-12-07T09:38:27;22.15;;;14.20;;
35522;SDS011;61478;50.820;4.330;2022-12-07T09:40:55;23.85;;;14.40;;
35522;SDS011;61478;50.820;4.330;2022-12-07T09:43:25;20.35;;;13.85;;
35522;SDS011;61478;50.820;4.330;2022-12-07T09:45:54;18.13;;;12.32;;
35522;SDS011;61478;50.820;4.330;2022-12-07T09:48:22;23.85;;;11.70;;
35522;SDS011;61478;50.820;4.330;2022-12-07T09:50:55;27.58;;;12.75;;
35522;SDS011;61478;50.820;4.330;2022-12-07T09:53:26;25.95;;;12.32;;
35522;SDS011;61478;50.820;4.330;2022-12-07T09:55:59;27.75;;;12.93;;
35522;SDS011;61478;50.820;4.330;2022-12-07T09:58:30;28.95;;;13.07;;
35522;SDS011;61478;50.820;4.330;2022-12-07T10:03:33;38.38;;;12.75;;
35522;SDS011;61478;50.820;4.330;2022-12-07T10:06:01;32.65;;;12.68;;
35522;SDS011;61478;50.820;4.330;2022-12-07T10:08:27;25.85;;;12.65;;
35522;SDS011;61478;50.820;4.330;2022-12-07T10:10:56;20.85;;;11.73;;
35522;SDS011;61478;50.820;4.330;2022-12-07T10:13:44;17.75;;;10.88;;
35522;SDS011;61478;50.820;4.330;2022-12-07T10:16:29;19.42;;;10.32;;
35522;SDS011;61478;50.820;4.330;2022-12-07T10:24:36;20.02;;;11.13;;
35522;SDS011;61478;50.820;4.330;2022-12-07T10:27:04;21.85;;;11.10;;
35522;SDS011;61478;50.820;4.330;2022-12-07T10:29:43;23.42;;;11.85;;
35522;SDS011;61478;50.820;4.330;2022-12-07T10:34:41;17.55;;;10.10;;
35522;SDS011;61478;50.820;4.330;2022-12-07T10:37:15;24.00;;;11.07;;
35522;SDS011;61478;50.820;4.330;2022-12-07T10:39:46;17.48;;;10.30;;
35522;SDS011;61478;50.820;4.330;2022-12-07T10:42:23;19.58;;;9.88;;
35522;SDS011;61478;50.820;4.330;2022-12-07T10:53:21;23.67;;;12.40;;
35522;SDS011;61478;50.820;4.330;2022-12-07T11:07:42;18.08;;;8.70;;
35522;SDS011;61478;50.820;4.330;2022-12-07T11:10:25;16.38;;;8.15;;
35522;SDS011;61478;50.820;4.330;2022-12-07T11:16:00;81.15;;;59.35;;
35522;SDS011;61478;50.820;4.330;2022-12-07T11:22:21;18.10;;;11.48;;
35522;SDS011;61478;50.820;4.330;2022-12-07T11:25:17;16.45;;;8.30;;
35522;SDS011;61478;50.820;4.330;2022-12-07T11:33:29;16.13;;;7.13;;
35522;SDS011;61478;50.820;4.330;2022-12-07T11:39:29;19.00;;;8.70;;
35522;SDS011;61478;50.820;4.330;2022-12-07T11:45:23;13.75;;;5.70;;
35522;SDS011;61478;50.820;4.330;2022-12-07T11:48:04;16.48;;;5.43;;
35522;SDS011;61478;50.820;4.330;2022-12-07T11:50:59;20.92;;;7.05;;
35522;SDS011;61478;50.820;4.330;2022-12-07T11:53:44;26.05;;;13.90;;
35522;SDS011;61478;50.820;4.330;2022-12-07T11:56:39;32.25;;;19.65;;
35522;SDS011;61478;50.820;4.330;2022-12-07T12:05:22;43.33;;;23.65;;
35522;SDS011;61478;50.820;4.330;2022-12-07T12:08:36;54.72;;;32.30;;
35522;SDS011;61478;50.820;4.330;2022-12-07T12:11:11;59.25;;;34.78;;
35522;SDS011;61478;50.820;4.330;2022-12-07T12:17:11;11.57;;;5.00;;
35522;SDS011;61478;50.820;4.330;2022-12-07T12:28:58;17.65;;;8.80;;
35522;SDS011;61478;50.820;4.330;2022-12-07T12:33:33;40.33;;;23.00;;
35522;SDS011;61478;50.820;4.330;2022-12-07T12:36:26;34.53;;;20.08;;
35522;SDS011;61478;50.820;4.330;2022-12-07T12:47:01;13.50;;;7.32;;
35522;SDS011;61478;50.820;4.330;2022-12-07T12:53:12;13.32;;;3.65;;
35522;SDS011;61478;50.820;4.330;2022-12-07T12:58:50;17.38;;;6.45;;
35522;SDS011;61478;50.820;4.330;2022-12-07T13:01:54;9.57;;;3.47;;
35522;SDS011;61478;50.820;4.330;2022-12-07T13:04:48;10.07;;;3.22;;
35522;SDS011;61478;50.820;4.330;2022-12-07T13:13:01;33.55;;;20.17;;
35522;SDS011;61478;50.820;4.330;2022-12-07T13:15:47;88.70;;;69.28;;
35522;SDS011;61478;50.820;4.330;2022-12-07T13:20:56;14.82;;;6.90;;
35522;SDS011;61478;50.820;4.330;2022-12-07T13:29:13;7.53;;;3.78;;
35522;SDS011;61478;50.820;4.330;2022-12-07T13:31:53;9.95;;;3.70;;
35522;SDS011;61478;50.820;4.330;2022-12-07T13:34:29;7.78;;;3.50;;
35522;SDS011;61478;50.820;4.330;2022-12-07T13:37:24;17.00;;;3.90;;
35522;SDS011;61478;50.820;4.330;2022-12-07T13:39:58;9.23;;;3.40;;
35522;SDS011;61478;50.820;4.330;2022-12-07T13:44:56;11.38;;;4.38;;
35522;SDS011;61478;50.820;4.330;2022-12-07T13:50:35;18.25;;;4.65;;
35522;SDS011;61478;50.820;4.330;2022-12-07T13:53:07;11.32;;;4.43;;
35522;SDS011;61478;50.820;4.330;2022-12-07T13:55:53;13.35;;;4.22;;
35522;SDS011;61478;50.820;4.330;2022-12-07T13:58:30;14.10;;;3.78;;
35522;SDS011;61478;50.820;4.330;2022-12-07T14:01:09;9.10;;;3.30;;
35522;SDS011;61478;50.820;4.330;2022-12-07T14:03:43;15.13;;;3.92;;
35522;SDS011;61478;50.820;4.330;2022-12-07T14:06:17;12.57;;;4.28;;
35522;SDS011;61478;50.820;4.330;2022-12-07T14:09:28;12.80;;;3.88;;
35522;SDS011;61478;50.820;4.330;2022-12-07T14:11:53;13.10;;;3.63;;
35522;SDS011;61478;50.820;4.330;2022-12-07T14:14:22;8.43;;;3.20;;
35522;SDS011;61478;50.820;4.330;2022-12-07T14:16:58;12.02;;;3.70;;
35522;SDS011;61478;50.820;4.330;2022-12-07T14:27:34;12.82;;;3.80;;
35522;SDS011;61478;50.820;4.330;2022-12-07T14:30:01;11.35;;;3.97;;
35522;SDS011;61478;50.820;4.330;2022-12-07T14:32:31;11.38;;;4.72;;
35522;SDS011;61478;50.820;4.330;2022-12-07T14:35:08;16.48;;;5.55;;
35522;SDS011;61478;50.820;4.330;2022-12-07T14:37:36;8.98;;;3.33;;
35522;SDS011;61478;50.820;4.330;2022-12-07T14:40:03;7.50;;;1.52;;
35522;SDS011;61478;50.820;4.330;2022-12-07T14:42:30;6.15;;;1.70;;
35522;SDS011;61478;50.820;4.330;2022-12-07T14:44:58;6.25;;;1.60;;
35522;SDS011;61478;50.820;4.330;2022-12-07T14:47:27;6.88;;;1.88;;
35522;SDS011;61478;50.820;4.330;2022-12-07T14:49:52;10.30;;;2.72;;
35522;SDS011;61478;50.820;4.330;2022-12-07T14:52:23;11.00;;;4.80;;
35522;SDS011;61478;50.820;4.330;2022-12-07T14:54:52;5.80;;;2.33;;
35522;SDS011;61478;50.820;4.330;2022-12-07T14:57:19;7.50;;;2.28;;
35522;SDS011;61478;50.820;4.330;2022-12-07T14:59:45;11.02;;;2.90;;
35522;SDS011;61478;50.820;4.330;2022-12-07T15:02:12;7.50;;;2.42;;
35522;SDS011;61478;50.820;4.330;2022-12-07T15:04:39;7.75;;;2.20;;
35522;SDS011;61478;50.820;4.330;2022-12-07T15:07:08;6.65;;;2.60;;
35522;SDS011;61478;50.820;4.330;2022-12-07T15:09:40;7.15;;;3.08;;
35522;SDS011;61478;50.820;4.330;2022-12-07T15:12:05;6.40;;;2.72;;
35522;SDS011;61478;50.820;4.330;2022-12-07T15:14:31;7.07;;;3.15;;
35522;SDS011;61478;50.820;4.330;2022-12-07T15:16:57;10.98;;;3.45;;
35522;SDS011;61478;50.820;4.330;2022-12-07T15:19:23;6.43;;;2.83;;
35522;SDS011;61478;50.820;4.330;2022-12-07T15:21:51;13.07;;;7.88;;
35522;SDS011;61478;50.820;4.330;2022-12-07T15:24:18;9.23;;;3.80;;
35522;SDS011;61478;50.820;4.330;2022-12-07T15:26:44;9.55;;;4.03;;
35522;SDS011;61478;50.820;4.330;2022-12-07T15:29:11;8.52;;;3.78;;
35522;SDS011;61478;50.820;4.330;2022-12-07T15:31:37;10.52;;;3.58;;
35522;SDS011;61478;50.820;4.330;2022-12-07T15:34:03;6.63;;;3.60;;
35522;SDS011;61478;50.820;4.330;2022-12-07T15:36:30;11.68;;;4.15;;
35522;SDS011;61478;50.820;4.330;2022-12-07T15:38:57;14.80;;;4.97;;
35522;SDS011;61478;50.820;4.330;2022-12-07T15:41:24;8.82;;;4.75;;
35522;SDS011;61478;50.820;4.330;2022-12-07T15:43:50;8.70;;;4.63;;
35522;SDS011;61478;50.820;4.330;2022-12-07T15:46:38;15.40;;;5.30;;
35522;SDS011;61478;50.820;4.330;2022-12-07T15:49:10;13.85;;;5.97;;
35522;SDS011;61478;50.820;4.330;2022-12-07T15:51:38;11.07;;;4.57;;
35522;SDS011;61478;50.820;4.330;2022-12-07T15:54:04;9.82;;;4.95;;
35522;SDS011;61478;50.820;4.330;2022-12-07T15:56:30;8.45;;;4.68;;
35522;SDS011;61478;50.820;4.330;2022-12-07T15:58:56;10.57;;;4.55;;
35522;SDS011;61478;50.820;4.330;2022-12-07T16:01:22;12.23;;;4.95;;
35522;SDS011;61478;50.820;4.330;2022-12-07T16:03:48;17.33;;;5.22;;
35522;SDS011;61478;50.820;4.330;2022-12-07T16:06:17;13.40;;;4.88;;
35522;SDS011;61478;50.820;4.330;2022-12-07T16:08:44;12.25;;;4.47;;
35522;SDS011;61478;50.820;4.330;2022-12-07T16:11:11;12.60;;;4.38;;
35522;SDS011;61478;50.820;4.330;2022-12-07T16:13:37;11.70;;;4.88;;
35522;SDS011;61478;50.820;4.330;2022-12-07T16:16:05;7.97;;;4.20;;
35522;SDS011;61478;50.820;4.330;2022-12-07T16:18:32;7.75;;;4.53;;
35522;SDS011;61478;50.820;4.330;2022-12-07T16:20:59;10.32;;;4.20;;
35522;SDS011;61478;50.820;4.330;2022-12-07T16:23:25;10.25;;;5.00;;
35522;SDS011;61478;50.820;4.330;2022-12-07T16:25:51;7.30;;;4.38;;
35522;SDS011;61478;50.820;4.330;2022-12-07T16:28:17;12.25;;;5.72;;
35522;SDS011;61478;50.820;4.330;2022-12-07T16:30:43;10.18;;;4.70;;
35522;SDS011;61478;50.820;4.330;2022-12-07T16:33:09;10.73;;;5.00;;
35522;SDS011;61478;50.820;4.330;2022-12-07T16:35:40;10.02;;;5.22;;
35522;SDS011;61478;50.820;4.330;2022-12-07T16:38:06;11.57;;;6.15;;
35522;SDS011;61478;50.820;4.330;2022-12-07T16:40:32;11.73;;;5.55;;
35522;SDS011;61478;50.820;4.330;2022-12-07T16:42:58;10.80;;;6.63;;
35522;SDS011;61478;50.820;4.330;2022-12-07T16:45:24;18.42;;;6.85;;
35522;SDS011;61478;50.820;4.330;2022-12-07T16:47:50;9.40;;;5.55;;
35522;SDS011;61478;50.820;4.330;2022-12-07T16:50:16;12.13;;;5.75;;
35522;SDS011;61478;50.820;4.330;2022-12-07T16:52:42;10.75;;;6.20;;
35522;SDS011;61478;50.820;4.330;2022-12-07T16:55:08;10.57;;;6.75;;
35522;SDS011;61478;50.820;4.330;2022-12-07T16:57:34;13.15;;;7.13;;
35522;SDS011;61478;50.820;4.330;2022-12-07T17:00:00;12.48;;;7.32;;
35522;SDS011;61478;50.820;4.330;2022-12-07T17:02:25;16.77;;;7.80;;
35522;SDS011;61478;50.820;4.330;2022-12-07T17:04:51;12.32;;;7.38;;
35522;SDS011;61478;50.820;4.330;2022-12-07T17:07:17;19.15;;;8.45;;
35522;SDS011;61478;50.820;4.330;2022-12-07T17:09:43;10.13;;;7.93;;
35522;SDS011;61478;50.820;4.330;2022-12-07T17:12:09;17.95;;;8.38;;
35522;SDS011;61478;50.820;4.330;2022-12-07T17:14:35;15.48;;;7.05;;
35522;SDS011;61478;50.820;4.330;2022-12-07T17:17:20;12.35;;;6.00;;
35522;SDS011;61478;50.820;4.330;2022-12-07T17:19:45;13.30;;;6.55;;